Time;durP1;ratioP1;P1;durP2;ratioP2;P2;SDS_P1;SDS_P2;PMS_P1;PMS_P2;Temp;Humidity;BMP_temperature;BMP_pressure;BME280_temperature;BME280_humidity;BME280_pressure;Samples;Min_cycle;Max_cycle;Signal;HPM_P1;HPM_P2
2022/06/28 00:02:07;;;;;;;12.80;11.50;;;;;;;24.24;63.41;99869.22;5062436;28;20104;-60
2022/06/28 00:04:32;;;;;;;12.85;11.38;;;;;;;24.37;62.65;99879.72;5062263;28;20025;-59
2022/06/28 00:06:58;;;;;;;14.32;12.20;;;;;;;24.37;62.68;99879.72;5062335;28;20047;-59
2022/06/28 00:09:24;;;;;;;13.13;11.93;;;;;;;24.27;62.81;99872.50;5062589;28;20017;-60
2022/06/28 00:11:50;;;;;;;13.32;11.60;;;;;;;24.34;63.02;99885.25;5081045;28;20021;-60
2022/06/28 00:17:00;;;;;;;13.07;11.70;;;;;;;24.34;62.85;99891.38;5076041;28;20025;-59
2022/06/28 00:19:26;;;;;;;12.57;11.45;;;;;;;24.34;63.21;99886.09;5066067;28;20040;-59
2022/06/28 00:21:52;;;;;;;12.90;11.27;;;;;;;24.31;63.10;99886.31;5066689;28;20028;-59
2022/06/28 00:24:17;;;;;;;13.55;11.90;;;;;;;24.24;63.50;99885.97;5086061;28;20037;-59
2022/06/28 00:26:43;;;;;;;12.80;11.68;;;;;;;24.23;63.62;99892.22;5070004;28;20025;-59
2022/06/28 00:29:09;;;;;;;12.75;11.55;;;;;;;24.19;63.86;99898.69;5077017;28;20059;-59
2022/06/28 00:31:34;;;;;;;13.50;12.07;;;;;;;24.18;63.88;99899.63;5079260;28;20176;-59
2022/06/28 00:34:01;;;;;;;17.40;12.13;;;;;;;24.12;64.17;99902.75;5067614;28;20103;-59
2022/06/28 00:36:26;;;;;;;13.48;11.48;;;;;;;24.06;64.03;99900.59;5085768;28;20044;-59
2022/06/28 00:38:53;;;;;;;13.07;11.68;;;;;;;23.95;64.59;99896.06;5073252;28;20032;-59
2022/06/28 00:41:19;;;;;;;13.30;11.88;;;;;;;23.98;64.31;99902.94;5065890;28;20317;-59
2022/06/28 00:43:45;;;;;;;14.00;11.88;;;;;;;23.98;64.54;99905.59;5073628;28;20051;-59
2022/06/28 00:46:11;;;;;;;12.52;11.43;;;;;;;23.93;64.50;99908.59;5075499;28;20318;-59
2022/06/28 00:48:38;;;;;;;13.90;11.95;;;;;;;23.91;64.63;99903.41;5065633;28;20040;-59
2022/06/28 00:51:04;;;;;;;12.95;11.38;;;;;;;23.92;64.63;99906.88;5065630;28;20088;-59
2022/06/28 00:53:29;;;;;;;14.30;12.60;;;;;;;23.86;65.00;99902.84;5079133;28;20016;-59
2022/06/28 00:55:55;;;;;;;12.57;11.35;;;;;;;23.88;64.65;99906.25;5065354;28;20017;-59
2022/06/28 00:58:20;;;;;;;13.32;11.98;;;;;;;23.89;64.81;99913.25;5065592;28;20021;-58
2022/06/28 01:00:48;;;;;;;14.18;11.90;;;;;;;23.49;65.17;99852.66;5065364;28;20020;-59
2022/06/28 01:03:16;;;;;;;13.45;12.05;;;;;;;23.54;64.88;99863.72;5060776;28;20287;-59
2022/06/28 01:05:43;;;;;;;17.27;12.63;;;;;;;23.73;65.40;99892.34;5065106;28;20055;-59
2022/06/28 01:08:11;;;;;;;13.35;11.90;;;;;;;23.78;65.40;99908.69;5030846;28;20104;-59
2022/06/28 01:10:38;;;;;;;15.48;12.85;;;;;;;23.76;65.77;99917.72;5071877;28;20367;-59
2022/06/28 01:13:04;;;;;;;16.55;12.50;;;;;;;23.69;65.74;99922.59;5083249;28;20040;-59
2022/06/28 01:15:31;;;;;;;15.25;13.00;;;;;;;23.65;65.43;99929.06;5065168;28;20318;-60
2022/06/28 01:17:59;;;;;;;14.25;12.82;;;;;;;23.57;66.18;99926.13;5064871;28;20029;-60
2022/06/28 01:20:25;;;;;;;13.40;12.07;;;;;;;23.58;66.18;99931.31;5063825;28;20028;-60
2022/06/28 01:22:53;;;;;;;13.15;11.85;;;;;;;23.30;65.99;99884.00;5073064;28;20024;-60
2022/06/28 01:25:19;;;;;;;12.60;11.50;;;;;;;23.61;66.35;99924.97;5080984;28;20028;-60
2022/06/28 01:27:45;;;;;;;17.40;13.32;;;;;;;23.55;65.86;99930.69;5065061;28;20060;-60
2022/06/28 01:30:11;;;;;;;12.80;11.52;;;;;;;23.55;66.42;99928.06;5065134;28;20027;-60
2022/06/28 01:32:37;;;;;;;13.90;12.45;;;;;;;23.52;66.79;99931.75;5079499;28;20048;-60
2022/06/28 01:35:03;;;;;;;14.15;12.68;;;;;;;23.49;66.72;99931.97;5066722;28;20314;-59
2022/06/28 01:37:29;;;;;;;17.23;12.75;;;;;;;23.49;66.90;99928.50;5078807;28;20029;-59
2022/06/28 01:39:55;;;;;;;14.75;13.18;;;;;;;23.50;66.42;99928.38;5064930;28;20028;-59
2022/06/28 01:42:20;;;;;;;16.73;13.05;;;;;;;23.52;66.53;99936.22;5085007;28;20047;-59
2022/06/28 01:44:49;;;;;;;14.57;12.25;;;;;;;23.52;66.55;99946.78;5084590;28;20095;-59
2022/06/28 01:47:18;;;;;;;13.57;12.10;;;;;;;23.47;66.66;99933.88;5073100;28;20025;-59
2022/06/28 01:49:43;;;;;;;17.95;13.23;;;;;;;23.44;66.76;99934.09;5071692;28;20092;-59
2022/06/28 01:52:09;;;;;;;14.43;12.57;;;;;;;23.45;66.78;99933.16;5082093;28;20024;-59
2022/06/28 01:54:35;;;;;;;14.23;12.73;;;;;;;23.47;66.80;99936.50;5064329;28;20092;-59
2022/06/28 01:57:02;;;;;;;12.52;11.43;;;;;;;23.46;67.14;99933.97;5064337;28;20021;-60
2022/06/28 01:59:28;;;;;;;15.57;12.52;;;;;;;23.44;67.04;99942.03;5046500;28;20045;-60
2022/06/28 02:01:53;;;;;;;13.85;12.55;;;;;;;23.48;67.19;99950.59;5071758;28;20029;-60
2022/06/28 02:04:26;;;;;;;14.27;12.52;;;;;;;23.48;67.26;99950.59;5080669;28;20222;-59
2022/06/28 02:06:52;;;;;;;14.88;12.63;;;;;;;23.48;67.07;99947.97;5064314;28;20029;-59
2022/06/28 02:09:18;;;;;;;13.68;12.05;;;;;;;23.49;67.23;99941.72;5064116;28;20028;-59
2022/06/28 02:11:44;;;;;;;13.48;11.52;;;;;;;23.51;66.82;99953.03;5064088;28;20054;-59
2022/06/28 02:14:09;;;;;;;13.63;12.25;;;;;;;23.50;66.52;99953.97;5063828;28;20041;-59
2022/06/28 02:16:35;;;;;;;13.63;12.25;;;;;;;23.51;66.98;99956.50;5063941;28;20033;-59
2022/06/28 02:19:02;;;;;;;13.25;11.52;;;;;;;23.56;66.82;99957.03;5064009;28;20032;-59
2022/06/28 02:21:27;;;;;;;14.05;11.32;;;;;;;23.55;66.32;99957.97;5063978;28;20393;-59
2022/06/28 02:23:54;;;;;;;12.95;11.68;;;;;;;23.54;66.62;99961.56;5080828;28;20032;-58
2022/06/28 02:26:19;;;;;;;12.38;11.13;;;;;;;23.46;67.34;99966.56;5071831;28;20051;-58
2022/06/28 02:28:45;;;;;;;18.90;11.98;;;;;;;23.49;66.84;99962.88;5046024;28;20021;-58
2022/06/28 02:31:12;;;;;;;15.50;12.23;;;;;;;23.53;66.47;99956.38;5065950;28;20045;-58
2022/06/28 02:33:39;;;;;;;13.70;12.23;;;;;;;23.46;66.41;99965.72;5082985;28;20362;-58
2022/06/28 02:41:33;;;;;;;14.88;11.50;;;;;;;23.51;66.06;99988.22;5063772;28;20037;-59
2022/06/28 02:43:59;;;;;;;12.02;10.88;;;;;;;23.46;66.38;99982.44;5063731;28;20033;-59
2022/06/28 02:46:24;;;;;;;12.27;11.15;;;;;;;23.44;66.34;99981.69;5062991;28;20025;-59
2022/06/28 02:48:50;;;;;;;11.68;10.55;;;;;;;23.56;66.25;99983.47;5063587;28;20037;-59
2022/06/28 02:51:15;;;;;;;12.85;10.95;;;;;;;23.62;65.87;99982.19;5063153;28;20371;-59
2022/06/28 02:53:41;;;;;;;11.98;10.95;;;;;;;23.59;65.65;99993.81;5063123;28;20056;-59
2022/06/28 02:56:07;;;;;;;12.48;10.85;;;;;;;23.43;66.17;99988.78;5063422;28;20218;-59
2022/06/28 02:58:33;;;;;;;12.10;11.00;;;;;;;23.37;66.17;99985.72;5063147;28;20021;-59
2022/06/28 03:00:58;;;;;;;11.68;10.45;;;;;;;23.34;65.79;99989.41;5063486;28;20048;-59
2022/06/28 03:03:24;;;;;;;11.48;10.27;;;;;;;23.39;66.23;99983.81;5083191;28;20148;-59
2022/06/28 03:05:51;;;;;;;13.57;10.73;;;;;;;23.41;65.33;99981.91;5067197;28;20199;-60
2022/06/28 03:08:16;;;;;;;12.07;10.82;;;;;;;23.30;65.59;99982.69;5062996;28;20056;-59
2022/06/28 03:10:42;;;;;;;12.85;10.02;;;;;;;23.37;65.77;99996.28;5062792;28;20091;-59
2022/06/28 03:13:08;;;;;;;12.27;10.98;;;;;;;23.36;65.63;99990.16;5064404;28;20032;-59
2022/06/28 03:15:34;;;;;;;12.27;10.98;;;;;;;23.33;66.35;99994.81;5082895;28;20367;-59
2022/06/28 03:18:00;;;;;;;14.25;11.70;;;;;;;23.17;66.34;99995.88;5066057;28;20045;-59
2022/06/28 03:20:26;;;;;;;11.48;10.43;;;;;;;23.26;66.05;100000.53;5062833;28;20091;-59
2022/06/28 03:22:52;;;;;;;11.60;10.48;;;;;;;23.38;65.79;99997.97;5062732;28;20091;-59
2022/06/28 03:25:17;;;;;;;13.10;10.80;;;;;;;23.41;65.45;100000.41;5065628;28;20025;-59
2022/06/28 03:27:43;;;;;;;12.75;11.25;;;;;;;23.40;65.70;100004.00;5082806;28;20032;-59
2022/06/28 03:30:08;;;;;;;12.60;11.00;;;;;;;23.44;65.39;100000.19;5064092;28;20027;-58
2022/06/28 03:32:34;;;;;;;11.38;10.27;;;;;;;23.29;65.49;100006.53;5062498;28;20028;-58
2022/06/28 03:35:00;;;;;;;11.98;10.60;;;;;;;23.32;65.26;100001.06;5062159;28;20041;-59
2022/06/28 03:37:25;;;;;;;12.15;10.98;;;;;;;23.49;65.27;100011.28;5062639;28;20107;-59
2022/06/28 03:39:51;;;;;;;13.57;10.88;;;;;;;23.57;64.81;100008.97;5062464;28;20031;-58
2022/06/28 03:42:17;;;;;;;12.88;11.05;;;;;;;23.53;65.36;100003.97;5081904;28;20062;-59
2022/06/28 03:44:42;;;;;;;13.02;11.23;;;;;;;23.44;65.56;100008.13;5067906;28;20063;-59
2022/06/28 03:47:08;;;;;;;13.60;12.10;;;;;;;23.59;65.20;100007.03;5067531;28;20032;-59
2022/06/28 03:49:33;;;;;;;13.50;11.63;;;;;;;23.49;65.16;100008.66;5081473;28;20033;-59
2022/06/28 03:51:59;;;;;;;13.30;11.50;;;;;;;23.21;65.89;100010.56;5066705;28;20289;-58
2022/06/28 03:54:25;;;;;;;13.23;11.93;;;;;;;23.29;65.92;100011.81;5066780;28;20024;-58
2022/06/28 03:56:51;;;;;;;12.68;11.38;;;;;;;23.40;65.81;100014.56;5066305;28;20244;-59
2022/06/28 03:59:17;;;;;;;13.05;11.70;;;;;;;23.35;66.31;100014.91;5048566;28;20032;-59
2022/06/28 04:01:42;;;;;;;15.38;11.93;;;;;;;23.33;66.12;100018.59;5066379;28;20037;-58
2022/06/28 04:04:08;;;;;;;12.48;11.27;;;;;;;23.30;66.84;100026.75;5066397;28;20178;-59
2022/06/28 04:06:33;;;;;;;13.88;12.18;;;;;;;23.38;66.03;100014.69;5066144;28;20024;-59
2022/06/28 04:09:00;;;;;;;13.63;12.43;;;;;;;23.16;66.83;100012.69;5066094;28;20269;-59
2022/06/28 04:11:25;;;;;;;12.52;11.27;;;;;;;23.16;66.73;100010.06;5066131;28;20102;-59
2022/06/28 04:13:53;;;;;;;13.55;11.55;;;;;;;23.40;66.92;100017.22;5073407;28;20329;-59
2022/06/28 04:16:20;;;;;;;14.38;11.90;;;;;;;23.49;66.94;100029.81;5083528;28;20336;-59
2022/06/28 04:18:46;;;;;;;14.50;12.40;;;;;;;23.56;66.50;100022.28;5066153;28;20033;-59
2022/06/28 04:21:15;;;;;;;12.27;11.18;;;;;;;23.75;66.14;100027.13;5065931;28;20061;-59
2022/06/28 04:23:41;;;;;;;13.65;12.07;;;;;;;23.39;66.28;100015.53;5066112;28;20089;-59
2022/06/28 04:26:07;;;;;;;13.93;11.98;;;;;;;23.22;67.10;100009.63;5075206;28;20036;-59
2022/06/28 04:28:33;;;;;;;14.80;11.23;;;;;;;23.22;66.97;100028.13;5075163;28;20403;-59
2022/06/28 04:30:59;;;;;;;13.90;11.13;;;;;;;23.41;66.42;100032.13;5066156;28;20043;-59
2022/06/28 04:33:25;;;;;;;12.77;11.57;;;;;;;23.57;66.23;100030.13;5065817;28;20325;-59
2022/06/28 04:35:50;;;;;;;13.45;11.43;;;;;;;23.61;65.38;100018.38;5065910;28;20118;-59
2022/06/28 04:38:16;;;;;;;12.70;10.80;;;;;;;23.77;65.58;100030.47;5050513;28;20048;-58
2022/06/28 04:40:42;;;;;;;12.25;11.15;;;;;;;23.87;65.45;100034.22;5065514;28;20190;-59
2022/06/28 04:43:08;;;;;;;11.18;10.02;;;;;;;23.81;64.90;100031.97;5065130;28;20037;-59
2022/06/28 04:45:34;;;;;;;13.82;9.82;;;;;;;23.78;64.65;100022.44;5060306;28;20021;-58
2022/06/28 04:48:00;;;;;;;12.63;10.38;;;;;;;24.02;63.95;100028.78;5061096;28;20031;-59
2022/06/28 04:50:25;;;;;;;13.10;9.60;;;;;;;24.04;64.15;100013.63;5076973;28;20040;-59
2022/06/28 04:52:51;;;;;;;10.93;9.23;;;;;;;23.77;63.39;100025.19;5078485;28;20056;-58
2022/06/28 04:55:17;;;;;;;9.55;8.60;;;;;;;23.59;63.46;100025.56;5049616;28;20032;-58
2022/06/28 04:57:43;;;;;;;11.38;9.77;;;;;;;23.58;63.26;100037.06;5065685;28;20294;-59
2022/06/28 05:00:10;;;;;;;12.60;9.30;;;;;;;23.90;63.53;100027.84;5065109;28;20033;-59
2022/06/28 05:02:36;;;;;;;15.65;9.35;;;;;;;24.15;62.71;100037.50;5065069;28;20238;-59
2022/06/28 05:05:04;;;;;;;14.98;9.25;;;;;;;24.19;63.04;100038.13;5065139;28;20033;-59
2022/06/28 05:07:32;;;;;;;12.90;9.48;;;;;;;24.18;62.12;100039.94;5065074;28;20213;-59
2022/06/28 05:09:57;;;;;;;9.45;8.52;;;;;;;23.74;62.53;100028.94;5065215;28;20036;-59
2022/06/28 05:12:23;;;;;;;11.32;9.02;;;;;;;24.18;62.33;100031.97;5084318;28;20375;-60
2022/06/28 05:14:48;;;;;;;10.02;9.15;;;;;;;24.15;62.64;100037.50;5063133;28;20245;-60
2022/06/28 05:17:14;;;;;;;10.55;9.55;;;;;;;24.25;62.70;100041.16;5064947;28;20326;-60
2022/06/28 05:19:39;;;;;;;10.10;8.90;;;;;;;24.35;62.31;100040.50;5064618;28;20029;-59
2022/06/28 05:22:08;;;;;;;9.30;8.40;;;;;;;24.45;61.82;100045.00;5064654;28;20028;-59
2022/06/28 05:24:33;;;;;;;10.35;8.57;;;;;;;24.29;60.73;100037.34;5062082;28;20025;-59
2022/06/28 05:26:59;;;;;;;11.27;9.18;;;;;;;24.44;60.35;100055.69;5064336;28;20021;-59
2022/06/28 05:29:25;;;;;;;10.15;8.35;;;;;;;24.34;60.03;100044.09;5064507;28;20090;-59
2022/06/28 05:31:51;;;;;;;9.20;8.40;;;;;;;24.06;60.74;100054.06;5064501;28;20340;-59
2022/06/28 05:34:17;;;;;;;11.60;7.95;;;;;;;23.90;60.94;100046.34;5064253;28;20024;-59
2022/06/28 05:36:43;;;;;;;10.20;7.88;;;;;;;24.21;60.30;100046.81;5063934;28;20029;-59
2022/06/28 05:39:09;;;;;;;7.13;6.50;;;;;;;24.32;56.59;100046.88;5064317;28;20092;-59
2022/06/28 05:41:34;;;;;;;6.85;6.18;;;;;;;24.38;55.58;100050.88;5065291;28;20025;-58
2022/06/28 05:44:00;;;;;;;8.32;6.47;;;;;;;24.56;55.37;100044.22;5065522;28;20074;-59
2022/06/28 05:46:25;;;;;;;10.70;6.97;;;;;;;24.55;56.84;100057.56;5063643;28;20033;-59
2022/06/28 05:48:52;;;;;;;8.07;7.28;;;;;;;24.51;57.04;100050.81;5064365;28;20337;-59
2022/06/28 05:51:18;;;;;;;10.15;7.47;;;;;;;24.44;57.38;100053.06;5063775;28;20036;-58
2022/06/28 05:53:43;;;;;;;12.73;7.55;;;;;;;24.57;56.72;100040.59;5064033;28;20033;-58
2022/06/28 05:56:09;;;;;;;8.05;6.07;;;;;;;24.77;54.29;100046.22;5063761;28;20029;-58
2022/06/28 05:58:35;;;;;;;11.25;5.95;;;;;;;24.75;53.58;100046.34;5045685;28;20021;-58
2022/06/28 06:01:00;;;;;;;9.02;6.07;;;;;;;24.90;53.94;100044.34;5063859;28;20036;-59
2022/06/28 06:03:26;;;;;;;6.22;5.63;;;;;;;25.12;54.09;100055.97;5063583;28;20036;-59
2022/06/28 06:05:52;;;;;;;6.90;6.22;;;;;;;25.25;54.41;100056.69;5060694;28;20072;-59
2022/06/28 06:08:17;;;;;;;10.70;6.30;;;;;;;25.15;53.52;100055.72;5073988;28;20040;-59
2022/06/28 06:10:43;;;;;;;13.02;6.82;;;;;;;25.16;52.89;100057.44;5078735;28;20028;-58
2022/06/28 06:13:08;;;;;;;17.27;6.78;;;;;;;25.30;53.13;100048.41;5063848;28;20025;-59
2022/06/28 06:15:34;;;;;;;9.20;5.47;;;;;;;25.05;50.82;100054.75;5063797;28;20222;-58
2022/06/28 06:17:59;;;;;;;7.90;5.63;;;;;;;24.90;51.37;100048.81;5063896;28;20032;-58
2022/06/28 06:20:25;;;;;;;7.28;5.30;;;;;;;25.17;50.98;100048.53;5074798;28;20340;-59
2022/06/28 06:22:51;;;;;;;5.70;4.75;;;;;;;24.99;48.54;100054.25;5077653;28;20225;-59
2022/06/28 06:25:17;;;;;;;6.53;4.95;;;;;;;25.09;49.07;100046.44;5063717;28;20033;-59
2022/06/28 06:27:43;;;;;;;7.05;4.88;;;;;;;25.33;48.72;100050.84;5063559;28;20033;-59
2022/06/28 06:30:09;;;;;;;6.30;4.05;;;;;;;24.86;47.90;100042.06;5045470;28;20029;-58
2022/06/28 06:32:35;;;;;;;4.93;4.50;;;;;;;25.03;48.81;100049.56;5063545;28;20217;-58
2022/06/28 06:35:01;;;;;;;5.60;4.60;;;;;;;24.87;48.76;100056.97;5063387;28;20037;-58
2022/06/28 06:37:27;;;;;;;11.82;4.82;;;;;;;25.12;49.29;100053.31;5063048;28;20104;-59
2022/06/28 06:39:53;;;;;;;7.75;4.93;;;;;;;25.19;48.78;100051.88;5063159;28;20028;-57
2022/06/28 06:42:18;;;;;;;8.23;4.63;;;;;;;25.37;47.54;100046.16;5063223;28;20025;-58
2022/06/28 06:44:44;;;;;;;7.85;4.70;;;;;;;25.40;48.12;100036.16;5063750;28;20023;-58
2022/06/28 06:47:09;;;;;;;7.93;4.30;;;;;;;25.50;47.04;100041.59;5062907;28;20049;-58
2022/06/28 06:49:35;;;;;;;9.15;4.50;;;;;;;25.35;47.35;100056.88;5063247;28;20111;-58
2022/06/28 06:52:01;;;;;;;4.30;3.90;;;;;;;25.41;46.20;100050.25;5063047;28;20036;-58
2022/06/28 06:54:26;;;;;;;5.18;3.85;;;;;;;25.64;47.25;100059.09;5063008;28;20060;-59
2022/06/28 06:56:52;;;;;;;4.10;3.30;;;;;;;25.81;46.73;100063.03;5077440;28;20024;-58
2022/06/28 06:59:17;;;;;;;4.22;3.28;;;;;;;25.88;45.96;100053.63;5073611;28;20045;-58
2022/06/28 07:01:44;;;;;;;7.35;3.50;;;;;;;25.89;45.60;100065.09;5067900;28;20341;-58
2022/06/28 07:04:09;;;;;;;4.45;3.30;;;;;;;25.96;44.03;100072.41;5078771;28;20056;-59
2022/06/28 07:06:36;;;;;;;5.13;3.50;;;;;;;26.23;45.27;100063.25;5062829;28;20060;-59
2022/06/28 07:09:03;;;;;;;6.72;3.00;;;;;;;26.15;44.82;100063.00;5062621;28;20314;-60
2022/06/28 07:11:29;;;;;;;6.88;3.30;;;;;;;26.24;44.82;100069.38;5064668;28;20036;-60
2022/06/28 07:13:54;;;;;;;5.38;3.20;;;;;;;26.23;45.19;100063.25;5062571;28;20021;-60
2022/06/28 07:16:20;;;;;;;4.65;3.53;;;;;;;26.31;43.91;100071.44;5062693;28;20025;-59
2022/06/28 07:18:45;;;;;;;6.38;3.30;;;;;;;26.42;44.30;100077.69;5062848;28;20021;-59
2022/06/28 07:21:11;;;;;;;6.50;3.50;;;;;;;26.42;42.51;100078.50;5066557;28;20025;-60
2022/06/28 07:23:37;;;;;;;3.78;3.20;;;;;;;26.22;43.63;100077.47;5062601;28;20040;-60
2022/06/28 07:26:03;;;;;;;4.90;2.70;;;;;;;26.24;43.33;100074.69;5062207;28;20017;-59
2022/06/28 07:28:28;;;;;;;6.30;3.10;;;;;;;26.38;43.96;100081.53;5064987;28;20071;-60
2022/06/28 07:30:54;;;;;;;3.35;2.47;;;;;;;26.39;41.34;100088.56;5082622;28;20066;-59
2022/06/28 07:33:20;;;;;;;4.40;2.60;;;;;;;26.35;40.73;100083.50;5064731;28;20028;-60
2022/06/28 07:35:46;;;;;;;4.55;2.83;;;;;;;26.18;41.57;100086.66;5075884;28;20044;-58
2022/06/28 07:38:12;;;;;;;4.15;2.97;;;;;;;26.19;41.50;100083.03;5073904;28;20031;-59
2022/06/28 07:40:38;;;;;;;5.38;2.78;;;;;;;26.07;39.70;100084.06;5062495;28;20029;-60
2022/06/28 07:43:04;;;;;;;3.50;2.47;;;;;;;26.14;39.33;100095.88;5062372;28;20352;-60
2022/06/28 07:45:29;;;;;;;4.57;2.50;;;;;;;26.14;41.80;100094.03;5062154;28;20191;-59
2022/06/28 07:47:55;;;;;;;4.70;2.85;;;;;;;26.35;40.14;100099.44;5061684;28;20075;-60
2022/06/28 07:53:06;;;;;;;5.28;2.30;;;;;;;25.37;38.88;100080.63;5043087;28;20217;-59
2022/06/28 07:55:32;;;;;;;3.55;2.10;;;;;;;25.16;39.26;100110.44;5064164;28;20238;-58
2022/06/28 07:57:59;;;;;;;3.10;2.13;;;;;;;25.59;39.84;100111.63;5061930;28;20029;-58
2022/06/28 08:00:25;;;;;;;7.03;2.00;;;;;;;25.50;38.63;100118.50;5063771;28;20029;-57
2022/06/28 08:02:51;;;;;;;4.88;2.03;;;;;;;25.70;38.94;100108.16;5062163;28;20035;-59
2022/06/28 08:05:17;;;;;;;5.00;2.38;;;;;;;25.83;39.20;100117.66;5062031;28;20056;-59
2022/06/28 08:07:43;;;;;;;3.08;2.30;;;;;;;26.09;39.98;100113.97;5065358;28;20099;-60
2022/06/28 08:10:10;;;;;;;6.03;2.47;;;;;;;25.87;40.27;100120.06;5027659;28;20138;-58
2022/06/28 08:12:36;;;;;;;3.90;1.95;;;;;;;25.80;39.81;100115.25;5061679;28;20037;-59
2022/06/28 08:15:03;;;;;;;6.50;2.33;;;;;;;25.56;40.28;100130.44;5043754;28;20032;-57
2022/06/28 08:17:29;;;;;;;3.83;2.20;;;;;;;25.66;40.10;100119.00;5060177;28;20187;-58
2022/06/28 08:19:55;;;;;;;2.65;2.00;;;;;;;25.53;39.41;100131.53;5062657;28;20071;-58
2022/06/28 08:22:21;;;;;;;4.10;2.17;;;;;;;25.32;40.22;100126.06;5061462;28;20040;-58
2022/06/28 08:24:46;;;;;;;4.45;1.70;;;;;;;25.13;39.43;100116.00;5061652;28;20028;-58
2022/06/28 08:27:12;;;;;;;5.15;2.08;;;;;;;25.13;40.55;100116.00;5061660;28;20214;-59
2022/06/28 08:29:41;;;;;;;5.47;2.20;;;;;;;25.24;41.48;100121.31;5061829;28;20028;-59
2022/06/28 08:32:07;;;;;;;6.40;2.30;;;;;;;25.59;42.00;100119.59;5069616;28;20029;-58
2022/06/28 08:34:33;;;;;;;4.82;2.17;;;;;;;25.80;40.67;100117.09;5082969;28;20021;-59
2022/06/28 08:36:58;;;;;;;3.65;2.03;;;;;;;25.81;40.45;100118.75;5065344;28;20027;-59
2022/06/28 08:39:24;;;;;;;6.47;2.13;;;;;;;25.67;40.08;100128.66;5064547;28;20020;-59
2022/06/28 08:41:50;;;;;;;2.95;1.73;;;;;;;25.81;39.75;100126.72;5064402;28;20238;-60
2022/06/28 08:44:17;;;;;;;5.60;1.90;;;;;;;25.40;40.03;100125.50;5063113;28;20217;-61
2022/06/28 08:46:50;;;;;;;5.30;1.95;;;;;;;24.84;38.14;100097.81;5070251;28;20025;-58
2022/06/28 08:49:25;;;;;;;2.20;1.92;;;;;;;25.42;38.84;100116.44;5065405;28;20321;-58
2022/06/28 08:51:55;;;;;;;2.88;1.80;;;;;;;25.77;40.20;100126.13;5046937;28;20107;-58
2022/06/28 08:54:22;;;;;;;3.33;1.90;;;;;;;25.56;37.16;100106.59;5061341;28;20060;-58
2022/06/28 08:56:49;;;;;;;2.55;1.80;;;;;;;25.68;38.54;100116.22;5064085;28;20191;-58
2022/06/28 08:59:16;;;;;;;4.65;1.75;;;;;;;25.71;37.01;100115.13;5064247;28;20032;-58
2022/06/28 09:01:42;;;;;;;2.60;1.70;;;;;;;25.94;38.14;100126.63;5064303;28;20074;-58
2022/06/28 09:04:10;;;;;;;2.40;1.60;;;;;;;25.54;37.44;100108.50;5064263;28;20029;-58
2022/06/28 09:06:36;;;;;;;1.70;1.60;;;;;;;25.90;37.36;100117.22;5064188;28;20052;-59
2022/06/28 09:09:01;;;;;;;3.90;1.88;;;;;;;26.09;37.88;100122.75;5079753;28;20024;-58
2022/06/28 09:11:42;;;;;;;2.92;1.60;;;;;;;25.93;36.41;100124.94;5074916;28;20088;-58
2022/06/28 09:14:33;;;;;;;5.03;1.63;;;;;;;26.03;38.19;100079.94;5062377;28;20037;-59
2022/06/28 09:17:17;;;;;;;4.25;2.13;;;;;;;26.03;36.45;100079.94;5064428;28;20074;-59
2022/06/28 09:19:43;;;;;;;4.43;1.45;;;;;;;26.10;36.63;100126.28;5064398;28;20032;-59
2022/06/28 09:22:08;;;;;;;6.28;1.67;;;;;;;26.38;38.48;100121.38;5046733;28;20091;-60
2022/06/28 09:24:35;;;;;;;3.47;1.33;;;;;;;26.49;37.91;100119.56;5064283;28;20024;-60
2022/06/28 09:27:04;;;;;;;2.42;1.50;;;;;;;26.65;36.75;100120.94;5064074;28;20055;-60
2022/06/28 09:29:46;;;;;;;4.72;1.60;;;;;;;26.29;35.83;100104.38;5063895;28;20024;-58
2022/06/28 09:32:11;;;;;;;;;;;;;;;26.68;36.65;100120.72;5057857;28;20321;-59
2022/06/28 09:34:52;;;;;;;4.78;1.50;;;;;;;26.09;36.33;100121.94;5063739;28;19921;-59
2022/06/28 09:37:30;;;;;;;4.13;1.40;;;;;;;26.22;36.21;100122.63;5061230;28;20029;-61
2022/06/28 09:39:55;;;;;;;2.35;1.48;;;;;;;26.57;36.38;100129.56;5063672;28;20024;-59
2022/06/28 09:42:21;;;;;;;2.90;1.80;;;;;;;26.68;34.73;100126.91;5063807;28;20025;-60
2022/06/28 09:44:52;;;;;;;7.30;1.85;;;;;;;26.25;35.54;100125.06;5065869;28;20024;-61
2022/06/28 09:47:18;;;;;;;6.28;1.50;;;;;;;26.38;34.33;100124.91;5065024;28;20076;-60
2022/06/28 09:49:47;;;;;;;5.65;1.92;;;;;;;26.40;34.40;100122.13;5046467;28;20033;-61
2022/06/28 09:52:14;;;;;;;3.83;1.63;;;;;;;26.49;35.50;100121.34;5064356;28;20249;-63
2022/06/28 09:54:42;;;;;;;2.70;1.50;;;;;;;26.16;35.53;100115.16;5063786;28;20020;-63
2022/06/28 09:57:11;;;;;;;5.00;1.50;;;;;;;26.15;36.43;100073.63;5063574;28;20401;-64
2022/06/28 09:59:38;;;;;;;2.25;1.80;;;;;;;26.63;37.31;100112.28;5063640;28;20024;-64
2022/06/28 10:02:03;;;;;;;3.33;1.90;;;;;;;26.42;36.62;100122.84;5063365;28;20245;-64
2022/06/28 10:04:30;;;;;;;5.63;2.00;;;;;;;26.52;35.28;100115.78;5064005;28;20062;-63
2022/06/28 10:06:55;;;;;;;2.47;1.52;;;;;;;26.73;33.42;100120.38;5045346;28;20017;-64
2022/06/28 10:09:21;;;;;;;1.75;1.38;;;;;;;26.65;34.91;100103.22;5063226;28;20025;-65
2022/06/28 10:17:52;;;;;;;2.25;1.40;;;;;;;25.92;32.78;100076.28;5061290;28;20052;-64
2022/06/28 10:20:24;;;;;;;3.55;2.10;;;;;;;26.26;33.38;100075.44;5062275;28;20029;-63
2022/06/28 10:22:50;;;;;;;6.70;2.22;;;;;;;26.48;32.43;100114.34;5063961;28;20032;-63
2022/06/28 10:25:23;;;;;;;7.30;1.75;;;;;;;26.35;34.18;100072.88;5063126;28;20032;-65
2022/06/28 10:27:52;;;;;;;4.55;1.40;;;;;;;26.59;33.72;100114.31;5062563;28;20048;-64
2022/06/28 10:30:20;;;;;;;2.58;1.42;;;;;;;26.68;33.19;100116.28;5062969;28;20375;-62
2022/06/28 10:33:00;;;;;;;1.40;1.30;;;;;;;26.06;32.24;100066.41;5063615;28;20029;-62
2022/06/28 10:35:29;;;;;;;1.42;1.20;;;;;;;25.89;31.91;100097.78;5062542;28;20056;-63
2022/06/28 10:38:10;;;;;;;2.60;1.30;;;;;;;25.83;32.56;100114.19;5062688;28;20025;-61
2022/06/28 10:40:41;;;;;;;4.33;1.20;;;;;;;25.89;33.46;100116.34;5063361;28;20029;-63
2022/06/28 10:43:08;;;;;;;3.47;1.58;;;;;;;26.06;33.76;100108.91;5083087;28;20224;-63
2022/06/28 10:46:05;;;;;;;3.42;1.35;;;;;;;26.07;33.68;100121.22;5077944;28;20096;-63
2022/06/28 10:48:51;;;;;;;2.78;1.40;;;;;;;25.88;32.97;100093.44;5062853;28;20048;-63
2022/06/28 10:51:19;;;;;;;4.90;1.50;;;;;;;25.81;33.06;100063.03;5062964;28;20092;-64
2022/06/28 10:53:57;;;;;;;4.50;1.33;;;;;;;26.11;32.44;100107.56;5062988;28;20261;-63
2022/06/28 10:56:25;;;;;;;4.90;1.40;;;;;;;26.22;32.68;100111.16;5070765;28;20021;-63
2022/06/28 10:59:05;;;;;;;3.63;1.35;;;;;;;26.19;32.05;100112.25;5078583;28;20060;-62
2022/06/28 11:01:39;;;;;;;4.30;1.10;;;;;;;25.83;30.85;100108.88;5062965;28;20337;-63
2022/06/28 11:04:21;;;;;;;1.48;1.13;;;;;;;26.01;32.21;100099.50;5063173;28;20032;-63
2022/06/28 11:06:49;;;;;;;2.65;1.50;;;;;;;25.68;30.69;100105.59;5063050;28;20087;-63
2022/06/28 11:09:33;;;;;;;5.22;1.45;;;;;;;25.99;32.07;100109.34;5044676;28;20040;-63
2022/06/28 11:12:12;;;;;;;3.15;1.33;;;;;;;26.17;29.78;100104.41;5045058;28;20191;-63
2022/06/28 11:14:50;;;;;;;4.90;1.10;;;;;;;25.81;27.93;100063.88;5060871;28;20025;-64
2022/06/28 11:17:29;;;;;;;3.20;1.23;;;;;;;26.12;30.80;100108.41;5061677;28;20127;-64
2022/06/28 11:20:00;;;;;;;3.78;1.30;;;;;;;25.94;30.15;100066.41;5060444;28;20329;-64
2022/06/28 11:22:38;;;;;;;3.08;1.20;;;;;;;26.32;30.16;100120.94;5062255;28;20309;-63
2022/06/28 11:25:07;;;;;;;1.33;1.10;;;;;;;26.35;29.55;100110.06;5061113;28;20028;-63
2022/06/28 11:27:33;;;;;;;5.50;1.20;;;;;;;25.77;28.35;100114.69;5062049;28;20054;-65
2022/06/28 11:30:02;;;;;;;5.95;1.30;;;;;;;25.49;29.42;100111.50;5044432;28;20021;-63
2022/06/28 11:32:36;;;;;;;1.90;1.13;;;;;;;25.52;29.50;100084.75;5062128;28;20028;-63
2022/06/28 11:35:16;;;;;;;3.10;1.00;;;;;;;25.37;28.87;100118.59;5061726;28;20253;-62
2022/06/28 11:37:49;;;;;;;4.18;1.15;;;;;;;25.58;29.19;100109.94;5061881;28;20144;-62